Time;durP1;ratioP1;P1;durP2;ratioP2;P2;SDS_P1;SDS_P2;PMS_P1;PMS_P2;Temp;Humidity;BMP_temperature;BMP_pressure;BME280_temperature;BME280_humidity;BME280_pressure;Samples;Min_cycle;Max_cycle;Signal;HPM_P1;HPM_P2
2024/01/16 00:01:57;;;;;;;6.13;0.28;;;-0.40;99.90;;;;;;5039093;28;20047;-66
2024/01/16 00:04:23;;;;;;;10.13;0.30;;;-0.30;99.90;;;;;;5039282;28;20032;-65
2024/01/16 00:06:49;;;;;;;9.55;0.40;;;-0.40;99.90;;;;;;5055313;28;20043;-66
2024/01/16 00:09:15;;;;;;;8.60;0.60;;;-0.60;99.90;;;;;;5005934;28;20033;-67
2024/01/16 00:11:41;;;;;;;11.55;0.50;;;-0.60;99.90;;;;;;5040177;28;20091;-66
2024/01/16 00:14:07;;;;;;;10.65;0.47;;;-0.20;99.90;;;;;;5022241;28;20122;-66
2024/01/16 00:16:33;;;;;;;13.65;0.50;;;-0.40;99.90;;;;;;5054307;28;20441;-66
2024/01/16 00:18:59;;;;;;;8.57;0.43;;;-0.30;99.90;;;;;;5038075;28;20264;-67
2024/01/16 00:21:24;;;;;;;12.38;0.60;;;-0.10;99.90;;;;;;5036899;28;20036;-66
2024/01/16 00:23:50;;;;;;;8.48;0.40;;;-0.30;99.90;;;;;;5058246;28;20047;-66
2024/01/16 00:26:22;;;;;;;12.57;0.63;;;-0.40;99.90;;;;;;5018823;28;20052;-67
2024/01/16 00:28:48;;;;;;;7.90;0.50;;;-0.10;99.90;;;;;;5039425;28;20044;-66
2024/01/16 00:31:14;;;;;;;10.07;0.68;;;-0.20;99.90;;;;;;5039943;28;20544;-67
2024/01/16 00:33:40;;;;;;;10.38;0.60;;;-0.10;99.90;;;;;;5021699;28;20090;-67
2024/01/16 00:36:06;;;;;;;13.00;0.70;;;0.20;99.90;;;;;;5070680;28;20036;-67
2024/01/16 00:38:35;;;;;;;5.47;0.38;;;-0.10;99.90;;;;;;5037713;28;20517;-67
2024/01/16 00:41:01;;;;;;;12.65;0.40;;;0.00;99.90;;;;;;5054442;28;20043;-67
2024/01/16 00:43:27;;;;;;;14.75;1.23;;;0.30;99.90;;;;;;5058199;28;20044;-67
2024/01/16 00:45:53;;;;;;;9.27;0.70;;;0.10;99.90;;;;;;5022199;28;20481;-67
2024/01/16 00:48:20;;;;;;;14.57;1.45;;;0.20;99.90;;;;;;5038217;28;20044;-67
2024/01/16 00:50:49;;;;;;;10.77;0.75;;;0.50;99.90;;;;;;5018325;28;20582;-67
2024/01/16 00:53:16;;;;;;;9.85;0.60;;;0.60;99.90;;;;;;5023227;28;20059;-67
2024/01/16 00:55:42;;;;;;;11.25;0.50;;;0.80;99.90;;;;;;5020760;28;20052;-67
2024/01/16 00:58:08;;;;;;;9.68;0.43;;;0.70;99.90;;;;;;5039787;28;20538;-67
2024/01/16 01:00:35;;;;;;;7.18;0.50;;;0.80;99.90;;;;;;5037383;28;20120;-67
2024/01/16 01:03:01;;;;;;;7.72;0.57;;;0.80;99.90;;;;;;5041453;28;20169;-67
2024/01/16 01:05:28;;;;;;;8.13;0.50;;;0.70;99.90;;;;;;5053476;28;20370;-65
2024/01/16 01:07:57;;;;;;;12.02;0.70;;;0.60;99.90;;;;;;5055135;28;20036;-66
2024/01/16 01:10:23;;;;;;;8.80;0.70;;;0.80;99.90;;;;;;5036593;28;20768;-66
2024/01/16 01:12:50;;;;;;;8.57;0.47;;;0.70;99.90;;;;;;5037013;28;20506;-67
2024/01/16 01:15:16;;;;;;;11.90;0.50;;;0.60;99.90;;;;;;5053957;28;20278;-67
2024/01/16 01:17:42;;;;;;;13.00;0.68;;;0.70;99.90;;;;;;5071279;27;20040;-66
2024/01/16 01:20:12;;;;;;;9.77;0.52;;;0.80;99.90;;;;;;5054220;28;20048;-68
2024/01/16 01:22:38;;;;;;;8.30;0.47;;;0.80;99.90;;;;;;5040204;28;20490;-68
2024/01/16 01:25:04;;;;;;;3.75;0.43;;;0.40;99.90;;;;;;5022765;28;20517;-66
2024/01/16 01:27:30;;;;;;;10.18;0.40;;;0.30;99.90;;;;;;5019875;28;20391;-67
2024/01/16 01:29:56;;;;;;;4.85;0.32;;;0.30;99.90;;;;;;5021196;28;20040;-66
2024/01/16 01:32:22;;;;;;;8.18;0.45;;;0.30;99.90;;;;;;5057340;28;20047;-66
2024/01/16 01:34:48;;;;;;;11.57;0.40;;;0.10;99.90;;;;;;5037241;28;20069;-66
2024/01/16 01:37:14;;;;;;;10.68;0.55;;;0.00;99.90;;;;;;5037962;28;20044;-68
2024/01/16 01:39:40;;;;;;;4.35;0.20;;;0.00;99.90;;;;;;5038714;28;20040;-67
2024/01/16 01:42:06;;;;;;;5.60;0.25;;;0.20;99.90;;;;;;5037011;28;20037;-67
2024/01/16 01:44:32;;;;;;;6.22;0.40;;;0.00;99.90;;;;;;5054088;28;20040;-67
2024/01/16 01:46:58;;;;;;;6.53;0.30;;;0.20;99.90;;;;;;5022146;28;20040;-67
2024/01/16 01:49:26;;;;;;;4.68;0.30;;;0.20;99.90;;;;;;5020484;28;20043;-67
2024/01/16 01:51:52;;;;;;;9.35;0.28;;;0.10;99.90;;;;;;5039261;28;20044;-68
2024/01/16 01:54:20;;;;;;;7.25;0.40;;;0.10;99.90;;;;;;5020866;28;20387;-67
2024/01/16 01:56:47;;;;;;;8.55;0.50;;;0.10;99.90;;;;;;5021256;28;20202;-66
2024/01/16 01:59:18;;;;;;;9.75;0.50;;;0.10;99.90;;;;;;5038180;28;20769;-67
2024/01/16 02:01:48;;;;;;;;;;;0.00;99.90;;;;;;5021642;28;20102;-67
2024/01/16 02:04:18;;;;;;;7.90;0.47;;;0.10;99.90;;;;;;5037275;28;20015;-67
2024/01/16 02:06:44;;;;;;;8.80;0.55;;;-0.20;99.90;;;;;;5052768;28;20048;-67
2024/01/16 02:09:14;;;;;;;4.82;0.40;;;-0.20;99.90;;;;;;5022135;28;20086;-67
2024/01/16 02:11:41;;;;;;;7.30;0.82;;;-0.10;99.90;;;;;;5069895;28;20040;-67
2024/01/16 02:14:07;;;;;;;5.18;0.20;;;0.00;99.90;;;;;;5037720;28;20586;-67
2024/01/16 02:16:41;;;;;;;8.93;0.52;;;0.00;99.90;;;;;;5017275;28;20218;-67
2024/01/16 02:19:07;;;;;;;;;;;-0.10;99.90;;;;;;5037060;28;20042;-67
2024/01/16 02:21:51;;;;;;;3.63;0.30;;;-0.10;99.90;;;;;;5036650;28;20474;-67
2024/01/16 02:24:18;;;;;;;10.55;0.50;;;0.10;99.90;;;;;;5069189;28;20186;-67
2024/01/16 02:26:44;;;;;;;4.63;0.20;;;-0.10;99.90;;;;;;5036973;28;20511;-68
2024/01/16 02:29:10;;;;;;;6.05;0.40;;;-0.20;99.90;;;;;;5005965;28;20044;-68
2024/01/16 02:31:36;;;;;;;6.85;0.30;;;-0.10;99.90;;;;;;5039964;28;20044;-67
2024/01/16 02:34:04;;;;;;;8.25;0.38;;;-0.40;99.90;;;;;;5017535;28;20101;-67
2024/01/16 02:36:30;;;;;;;12.32;0.50;;;-0.40;99.90;;;;;;5021608;28;20511;-67
2024/01/16 02:38:56;;;;;;;8.38;0.50;;;-0.60;99.90;;;;;;5038055;28;20048;-67
2024/01/16 02:41:21;;;;;;;5.40;0.35;;;-0.50;99.90;;;;;;5070551;28;20531;-67
2024/01/16 02:43:48;;;;;;;8.70;0.35;;;-0.80;99.90;;;;;;5037597;28;20083;-67
2024/01/16 02:46:17;;;;;;;6.78;0.60;;;-0.70;99.90;;;;;;5053747;28;20036;-67
2024/01/16 02:48:42;;;;;;;6.45;0.30;;;-0.50;99.90;;;;;;5039504;28;20217;-67
2024/01/16 02:51:09;;;;;;;5.93;0.30;;;-0.60;99.90;;;;;;5037267;28;20032;-67
2024/01/16 02:53:35;;;;;;;4.95;0.20;;;-0.40;99.90;;;;;;5021201;28;20101;-67
2024/01/16 02:56:01;;;;;;;9.38;0.30;;;-0.30;99.90;;;;;;5037894;28;20472;-67
2024/01/16 02:58:32;;;;;;;6.40;0.30;;;-0.50;99.90;;;;;;5070029;28;20051;-67
2024/01/16 03:00:58;;;;;;;3.58;0.35;;;-0.30;99.90;;;;;;5021309;28;20098;-66
2024/01/16 03:03:24;;;;;;;8.48;0.50;;;-0.40;99.90;;;;;;5016523;28;20123;-67
2024/01/16 03:05:50;;;;;;;4.80;0.20;;;-0.30;99.90;;;;;;5035799;28;20039;-67
2024/01/16 03:08:16;;;;;;;3.83;0.10;;;-0.40;99.90;;;;;;5041010;28;20385;-67
2024/01/16 03:10:42;;;;;;;3.40;0.20;;;-0.30;99.90;;;;;;5036355;28;20406;-67
2024/01/16 03:13:08;;;;;;;6.75;0.57;;;-0.30;99.90;;;;;;5036827;28;20205;-67
2024/01/16 03:15:34;;;;;;;7.03;0.30;;;-0.40;99.90;;;;;;5036509;28;20156;-67
2024/01/16 03:18:00;;;;;;;4.47;0.40;;;-0.30;99.90;;;;;;5036259;28;20056;-67
2024/01/16 03:20:27;;;;;;;7.28;0.47;;;0.00;99.90;;;;;;5037725;28;20168;-67
2024/01/16 03:22:53;;;;;;;5.38;0.35;;;0.10;99.90;;;;;;5052036;28;20041;-65
2024/01/16 03:25:19;;;;;;;8.60;0.50;;;0.10;99.90;;;;;;5039334;28;20047;-66
2024/01/16 03:27:45;;;;;;;6.13;0.40;;;0.10;99.90;;;;;;5018994;28;20045;-65
2024/01/16 03:30:11;;;;;;;9.13;0.50;;;0.30;99.90;;;;;;5051617;28;20050;-67
2024/01/16 03:32:37;;;;;;;8.27;0.47;;;0.30;99.90;;;;;;5058807;28;20062;-66
2024/01/16 03:35:04;;;;;;;12.45;0.50;;;0.20;99.90;;;;;;5025605;28;20051;-66
2024/01/16 03:37:30;;;;;;;11.50;0.50;;;0.30;99.90;;;;;;5019666;28;20459;-66
2024/01/16 03:39:56;;;;;;;9.45;0.60;;;0.20;99.90;;;;;;5040312;28;20040;-67
2024/01/16 03:42:23;;;;;;;8.68;0.50;;;0.30;99.90;;;;;;5038374;28;20052;-67
2024/01/16 03:44:49;;;;;;;8.82;0.50;;;0.20;99.90;;;;;;5072507;28;20176;-67
2024/01/16 03:47:15;;;;;;;7.55;0.50;;;0.10;99.90;;;;;;5040575;28;20047;-67
2024/01/16 03:49:41;;;;;;;10.18;0.45;;;0.20;99.90;;;;;;5039725;28;20302;-67
2024/01/16 03:52:07;;;;;;;9.55;0.60;;;0.10;99.90;;;;;;5073807;28;20433;-67
2024/01/16 03:54:32;;;;;;;12.30;0.52;;;0.10;99.90;;;;;;5055251;28;20120;-67
2024/01/16 03:56:58;;;;;;;8.02;0.40;;;-0.20;99.90;;;;;;5062801;28;20040;-67
2024/01/16 03:59:24;;;;;;;9.05;0.75;;;-0.20;99.90;;;;;;5055844;28;20397;-67
2024/01/16 04:01:50;;;;;;;5.93;0.30;;;0.00;99.90;;;;;;5025846;28;20255;-67
2024/01/16 04:04:16;;;;;;;9.95;0.52;;;-0.10;99.90;;;;;;5022939;28;20312;-67
2024/01/16 04:06:42;;;;;;;12.93;0.73;;;-0.10;99.90;;;;;;5073418;28;20040;-67
2024/01/16 04:09:09;;;;;;;7.05;0.43;;;-0.10;99.90;;;;;;5038763;28;20379;-67
2024/01/16 04:11:35;;;;;;;8.73;0.68;;;-0.30;99.90;;;;;;5041144;28;20044;-67
2024/01/16 04:14:02;;;;;;;15.27;1.13;;;-0.10;99.90;;;;;;5038484;28;20052;-66
2024/01/16 04:16:28;;;;;;;5.63;0.52;;;0.00;99.90;;;;;;5039467;28;20047;-66
2024/01/16 04:18:54;;;;;;;7.53;0.50;;;-0.20;99.90;;;;;;5059955;28;20788;-67
2024/01/16 04:21:20;;;;;;;11.50;0.80;;;0.10;99.90;;;;;;5035758;28;20046;-67
2024/01/16 04:23:46;;;;;;;9.60;0.70;;;-0.30;99.90;;;;;;5056561;28;20047;-68
2024/01/16 04:26:14;;;;;;;12.55;0.70;;;-0.10;99.90;;;;;;5061516;28;20395;-66
2024/01/16 04:28:41;;;;;;;8.48;0.47;;;-0.20;99.90;;;;;;5073188;28;20491;-67
2024/01/16 04:31:06;;;;;;;10.20;0.73;;;0.10;99.90;;;;;;5039153;28;20047;-67
2024/01/16 04:33:32;;;;;;;10.32;0.60;;;-0.20;99.90;;;;;;5038406;28;20044;-67
2024/01/16 04:35:58;;;;;;;11.35;0.90;;;0.00;99.90;;;;;;5068285;28;20530;-66
2024/01/16 04:38:24;;;;;;;11.77;0.65;;;-0.20;99.90;;;;;;5040500;28;20070;-67
2024/01/16 04:40:50;;;;;;;12.65;0.75;;;-0.10;99.90;;;;;;5022145;28;20286;-66
2024/01/16 04:43:16;;;;;;;10.98;1.10;;;0.20;99.90;;;;;;5071694;28;20202;-68
2024/01/16 04:45:41;;;;;;;8.35;0.60;;;-0.10;99.90;;;;;;5037668;28;20101;-66
2024/01/16 04:48:10;;;;;;;9.93;0.55;;;-0.10;99.90;;;;;;5038152;28;20052;-67
2024/01/16 04:50:36;;;;;;;12.45;0.73;;;0.20;99.90;;;;;;5057170;28;20040;-66
2024/01/16 04:53:02;;;;;;;12.38;0.55;;;0.20;99.90;;;;;;5037747;28;20098;-67
2024/01/16 04:55:28;;;;;;;10.02;0.50;;;0.10;99.90;;;;;;5070728;27;20051;-67
2024/01/16 04:57:55;;;;;;;11.90;0.50;;;0.20;99.90;;;;;;5037785;28;20044;-67
2024/01/16 05:00:22;;;;;;;9.93;0.60;;;0.30;99.90;;;;;;5022127;28;20116;-67
2024/01/16 05:02:47;;;;;;;8.18;0.63;;;0.20;99.90;;;;;;5021374;28;20418;-67
2024/01/16 05:05:13;;;;;;;10.10;1.15;;;0.20;99.90;;;;;;5022193;28;20348;-67
2024/01/16 05:07:40;;;;;;;12.00;0.80;;;0.30;99.90;;;;;;5042235;28;20514;-67
2024/01/16 05:10:07;;;;;;;9.63;0.68;;;0.20;99.90;;;;;;5037710;28;20099;-66
2024/01/16 05:12:33;;;;;;;10.60;0.82;;;0.30;99.90;;;;;;5021190;28;20469;-67
2024/01/16 05:14:59;;;;;;;12.90;0.70;;;0.30;99.90;;;;;;5039387;28;20040;-66
2024/01/16 05:17:25;;;;;;;11.80;1.23;;;0.10;99.90;;;;;;5072250;28;20048;-66
2024/01/16 05:19:50;;;;;;;9.45;0.85;;;0.20;99.90;;;;;;5054076;28;20279;-66
2024/01/16 05:22:16;;;;;;;11.57;0.80;;;0.10;99.90;;;;;;5054693;28;20054;-66
2024/01/16 05:24:42;;;;;;;14.25;1.00;;;0.30;99.90;;;;;;5022522;28;20048;-66
2024/01/16 05:27:09;;;;;;;8.18;0.88;;;0.20;99.90;;;;;;5070807;28;20133;-66
2024/01/16 05:29:37;;;;;;;8.93;0.73;;;0.10;99.90;;;;;;5018519;28;20032;-67
2024/01/16 05:32:06;;;;;;;8.48;0.40;;;0.30;99.90;;;;;;5037894;28;20318;-66
2024/01/16 05:34:31;;;;;;;6.93;0.50;;;0.20;99.90;;;;;;5037162;28;20391;-66
2024/01/16 05:36:57;;;;;;;13.55;0.60;;;0.30;99.90;;;;;;5007241;28;20040;-66
2024/01/16 05:39:23;;;;;;;8.85;1.63;;;0.40;99.90;;;;;;5036313;28;20594;-67
2024/01/16 05:41:49;;;;;;;9.60;0.70;;;0.40;99.90;;;;;;5035824;28;20491;-68
2024/01/16 05:44:15;;;;;;;8.25;0.47;;;0.50;99.90;;;;;;5039128;28;20037;-67
2024/01/16 05:46:42;;;;;;;12.15;0.60;;;0.20;99.90;;;;;;5038057;28;20450;-67
2024/01/16 05:49:08;;;;;;;13.60;0.70;;;0.30;99.90;;;;;;5037813;28;20079;-66
2024/01/16 05:51:33;;;;;;;9.65;1.30;;;0.50;99.90;;;;;;5053866;28;20118;-67
2024/01/16 05:53:59;;;;;;;8.93;0.65;;;0.40;99.90;;;;;;5037687;28;20688;-66
2024/01/16 05:56:25;;;;;;;6.93;0.40;;;0.40;99.90;;;;;;5038838;28;20735;-67
2024/01/16 05:58:51;;;;;;;8.18;0.50;;;0.50;99.90;;;;;;5036542;28;20040;-68
2024/01/16 06:01:17;;;;;;;16.63;1.05;;;0.30;99.90;;;;;;5020959;28;20345;-65
2024/01/16 06:03:46;;;;;;;16.42;0.88;;;0.20;99.90;;;;;;5054204;28;20186;-68
2024/01/16 06:06:11;;;;;;;12.02;0.60;;;0.20;99.90;;;;;;5036772;28;20040;-67
2024/01/16 06:08:37;;;;;;;10.55;0.50;;;0.40;99.90;;;;;;5054762;28;20639;-66
2024/01/16 06:11:03;;;;;;;10.38;0.52;;;0.40;99.90;;;;;;5037156;28;20049;-66
2024/01/16 06:13:31;;;;;;;9.18;0.57;;;0.60;99.90;;;;;;5020228;28;20255;-66
2024/01/16 06:15:57;;;;;;;12.27;0.80;;;0.40;99.90;;;;;;5035001;28;20594;-67
2024/01/16 06:18:23;;;;;;;9.88;0.47;;;0.50;99.90;;;;;;5037147;28;20039;-66
2024/01/16 06:20:49;;;;;;;12.88;0.82;;;0.50;99.90;;;;;;5069317;28;20330;-66
2024/01/16 06:23:15;;;;;;;8.57;0.70;;;0.40;99.90;;;;;;5037010;28;20090;-66
2024/01/16 06:25:40;;;;;;;7.80;0.65;;;0.40;99.90;;;;;;5018764;28;20166;-67
2024/01/16 06:28:07;;;;;;;10.88;0.60;;;0.30;99.90;;;;;;5056200;28;20100;-66
2024/01/16 06:30:33;;;;;;;11.15;0.50;;;0.60;99.90;;;;;;5019884;28;20052;-67
2024/01/16 06:32:59;;;;;;;14.70;0.60;;;0.70;99.90;;;;;;5036746;28;20044;-66
2024/01/16 06:35:25;;;;;;;9.82;0.60;;;0.60;99.90;;;;;;5036376;28;20048;-67
2024/01/16 06:37:51;;;;;;;11.15;0.65;;;0.70;99.90;;;;;;5054870;28;20055;-67
2024/01/16 06:40:17;;;;;;;12.35;0.65;;;0.40;99.90;;;;;;5052697;28;20058;-67
2024/01/16 06:42:43;;;;;;;13.02;0.80;;;0.50;99.90;;;;;;5022671;28;20469;-66
2024/01/16 06:45:09;;;;;;;10.90;0.38;;;0.80;99.90;;;;;;5036393;28;20033;-65
2024/01/16 06:47:34;;;;;;;17.77;0.82;;;0.60;99.90;;;;;;5035893;28;20085;-66
2024/01/16 06:50:00;;;;;;;9.77;0.30;;;0.60;99.90;;;;;;5035744;28;20040;-67
2024/01/16 06:52:26;;;;;;;15.10;0.60;;;0.50;99.90;;;;;;5035882;28;20085;-67
2024/01/16 06:54:52;;;;;;;17.10;0.70;;;0.50;99.90;;;;;;5070547;28;20044;-65
2024/01/16 06:57:17;;;;;;;16.58;0.70;;;0.50;99.90;;;;;;5035414;28;20099;-66
2024/01/16 06:59:43;;;;;;;17.52;0.90;;;0.50;99.90;;;;;;5052723;28;20094;-66
2024/01/16 07:02:09;;;;;;;10.27;0.60;;;0.90;99.90;;;;;;5016380;28;20078;-66
2024/01/16 07:04:35;;;;;;;12.98;0.63;;;0.60;99.90;;;;;;5053975;28;20036;-66
2024/01/16 07:07:01;;;;;;;13.57;0.77;;;0.80;99.90;;;;;;5071995;28;20552;-65
2024/01/16 07:09:27;;;;;;;13.85;0.80;;;0.40;99.90;;;;;;5039349;28;20147;-66
2024/01/16 07:11:53;;;;;;;13.45;0.85;;;0.30;99.90;;;;;;5065278;28;20055;-64
2024/01/16 07:14:22;;;;;;;13.43;0.70;;;0.30;99.90;;;;;;5052339;28;20044;-65
2024/01/16 07:16:49;;;;;;;12.38;0.85;;;0.70;99.90;;;;;;5023748;28;20044;-67
2024/01/16 07:19:15;;;;;;;16.75;1.27;;;0.70;99.90;;;;;;5040250;28;20048;-66
2024/01/16 07:21:42;;;;;;;10.95;0.85;;;0.20;99.90;;;;;;5038614;28;20040;-66
2024/01/16 07:24:08;;;;;;;10.77;0.80;;;0.40;99.90;;;;;;5040017;28;20048;-65
2024/01/16 07:26:34;;;;;;;16.13;1.13;;;0.10;99.90;;;;;;5038942;28;20434;-64
2024/01/16 07:29:00;;;;;;;19.60;1.30;;;0.40;99.90;;;;;;5040135;28;21553;-68
2024/01/16 07:31:26;;;;;;;16.10;0.77;;;0.10;99.90;;;;;;5024834;28;20036;-66
2024/01/16 07:33:51;;;;;;;12.10;1.00;;;0.00;99.90;;;;;;5024824;28;20144;-66
2024/01/16 07:36:17;;;;;;;11.43;1.20;;;0.30;99.90;;;;;;5039119;28;20098;-66
2024/01/16 07:38:43;;;;;;;14.63;1.00;;;0.30;99.90;;;;;;5018851;28;20194;-66
2024/01/16 07:41:09;;;;;;;20.33;1.02;;;0.30;99.90;;;;;;5051991;28;20101;-66
2024/01/16 07:43:35;;;;;;;14.13;0.98;;;-0.10;99.90;;;;;;5040605;28;20115;-65
2024/01/16 07:46:02;;;;;;;12.43;0.90;;;0.20;99.90;;;;;;5024348;28;20523;-66
2024/01/16 07:48:29;;;;;;;15.50;1.13;;;0.10;99.90;;;;;;5017827;28;20039;-66
2024/01/16 07:50:55;;;;;;;14.40;1.20;;;-0.20;99.90;;;;;;5040230;28;20047;-66
2024/01/16 07:53:21;;;;;;;13.32;1.30;;;0.20;99.90;;;;;;5023528;28;20711;-66
2024/01/16 07:55:46;;;;;;;12.75;0.90;;;0.10;99.90;;;;;;5041975;28;20049;-65
2024/01/16 07:58:13;;;;;;;12.63;0.73;;;-0.20;99.90;;;;;;5056760;28;20051;-66
2024/01/16 08:00:39;;;;;;;8.35;0.80;;;-0.20;99.90;;;;;;5020069;28;20243;-65
2024/01/16 08:03:11;;;;;;;14.40;1.15;;;-0.10;99.90;;;;;;5021324;28;20506;-66
2024/01/16 08:05:37;;;;;;;17.92;1.40;;;0.20;99.90;;;;;;5053831;28;20040;-66
2024/01/16 08:08:03;;;;;;;10.93;0.90;;;-0.10;99.90;;;;;;5035663;28;20072;-66
2024/01/16 08:10:29;;;;;;;14.82;0.85;;;0.00;99.90;;;;;;5036912;28;20049;-66
2024/01/16 08:12:55;;;;;;;9.23;0.90;;;0.00;99.90;;;;;;5038409;28;20032;-66
2024/01/16 08:15:21;;;;;;;12.50;0.70;;;0.10;99.90;;;;;;5060975;28;20051;-66
2024/01/16 08:17:47;;;;;;;15.65;1.00;;;0.40;99.90;;;;;;5055544;28;20055;-67
2024/01/16 08:20:14;;;;;;;6.82;0.60;;;0.40;99.90;;;;;;5021661;28;20125;-66
2024/01/16 08:22:40;;;;;;;7.38;0.73;;;0.50;99.90;;;;;;5038301;28;20308;-65
2024/01/16 08:25:06;;;;;;;10.40;0.60;;;0.50;99.90;;;;;;5041694;28;20414;-65
2024/01/16 08:27:32;;;;;;;9.00;0.50;;;0.60;99.90;;;;;;5022409;28;20087;-65
2024/01/16 08:29:58;;;;;;;9.25;0.60;;;0.50;99.90;;;;;;5039594;28;20037;-65
2024/01/16 08:32:24;;;;;;;8.40;0.40;;;0.60;99.90;;;;;;5022196;28;20101;-65
2024/01/16 08:34:49;;;;;;;4.82;0.28;;;0.50;99.90;;;;;;5073563;28;20040;-66
2024/01/16 08:37:15;;;;;;;2.05;0.20;;;0.90;99.90;;;;;;5054406;28;20036;-66
2024/01/16 08:39:41;;;;;;;4.28;0.20;;;0.60;99.90;;;;;;5039070;28;20320;-66
2024/01/16 08:42:11;;;;;;;4.45;0.20;;;0.60;99.90;;;;;;5055176;28;20118;-65
2024/01/16 08:44:40;;;;;;;6.03;0.20;;;0.60;99.90;;;;;;5021022;28;20139;-65
2024/01/16 08:47:07;;;;;;;5.60;0.20;;;0.80;99.90;;;;;;5040233;28;20290;-66
2024/01/16 08:49:33;;;;;;;5.13;0.43;;;0.60;99.90;;;;;;5038466;28;20447;-65
2024/01/16 08:51:59;;;;;;;9.05;0.50;;;1.00;99.90;;;;;;5038217;28;20040;-66
2024/01/16 08:54:26;;;;;;;10.05;0.57;;;1.10;99.90;;;;;;5070883;28;20121;-65
2024/01/16 08:56:52;;;;;;;11.25;1.02;;;0.70;99.90;;;;;;5037177;28;20040;-66
2024/01/16 08:59:18;;;;;;;9.00;0.63;;;1.00;99.90;;;;;;5036842;28;20515;-66
2024/01/16 09:01:45;;;;;;;11.65;0.70;;;1.00;99.90;;;;;;5021083;28;20048;-66
2024/01/16 09:04:11;;;;;;;8.00;0.65;;;1.30;99.90;;;;;;5053274;28;20036;-66
2024/01/16 09:06:37;;;;;;;7.03;0.60;;;1.00;99.90;;;;;;5039555;28;20274;-66
2024/01/16 09:09:04;;;;;;;9.65;0.73;;;1.30;99.90;;;;;;5017960;28;20495;-66
2024/01/16 09:11:31;;;;;;;14.02;1.95;;;1.40;99.90;;;;;;5018183;28;20070;-66
2024/01/16 09:13:57;;;;;;;6.43;0.85;;;1.10;99.90;;;;;;5037314;28;20139;-67
2024/01/16 09:16:23;;;;;;;9.63;1.10;;;1.20;99.90;;;;;;5053708;28;20036;-66
2024/01/16 09:18:49;;;;;;;7.80;0.57;;;1.20;99.90;;;;;;5070632;28;20597;-67
2024/01/16 09:21:16;;;;;;;6.35;0.85;;;1.10;99.90;;;;;;5037774;28;20115;-66
2024/01/16 09:23:42;;;;;;;5.90;0.52;;;1.20;99.90;;;;;;5036822;28;20051;-66
2024/01/16 09:26:08;;;;;;;12.57;0.85;;;1.30;99.90;;;;;;5037936;28;20040;-67
2024/01/16 09:28:33;;;;;;;13.30;0.70;;;1.20;99.90;;;;;;5037222;28;20490;-67
2024/01/16 09:30:59;;;;;;;10.30;0.77;;;1.30;99.90;;;;;;5019992;28;20423;-66
2024/01/16 09:33:25;;;;;;;7.95;0.73;;;1.50;99.90;;;;;;5054899;28;20359;-67
2024/01/16 09:35:52;;;;;;;11.32;1.00;;;2.00;99.90;;;;;;5033607;28;20669;-66
2024/01/16 09:38:17;;;;;;;10.65;0.80;;;2.00;99.90;;;;;;5020030;28;20059;-67
2024/01/16 09:40:44;;;;;;;8.38;0.75;;;2.50;99.90;;;;;;5017889;28;20123;-66
2024/01/16 09:43:11;;;;;;;7.10;1.08;;;2.80;99.90;;;;;;5037075;28;20541;-66
2024/01/16 09:45:38;;;;;;;8.18;0.57;;;2.60;99.90;;;;;;5036333;28;20545;-67
2024/01/16 09:48:06;;;;;;;9.73;0.65;;;2.70;99.90;;;;;;5039296;28;20373;-66
2024/01/16 09:50:32;;;;;;;6.03;0.50;;;2.60;99.90;;;;;;5036193;28;20079;-67
2024/01/16 09:52:58;;;;;;;6.13;0.80;;;2.50;99.90;;;;;;5038593;28;20044;-66
2024/01/16 09:55:24;;;;;;;9.38;0.60;;;2.60;99.90;;;;;;5020832;28;20165;-67
2024/01/16 09:57:53;;;;;;;3.28;0.50;;;2.50;99.90;;;;;;5035146;28;20058;-67
2024/01/16 10:00:20;;;;;;;7.35;1.25;;;2.40;99.90;;;;;;5051790;28;20059;-67
2024/01/16 10:02:46;;;;;;;8.07;0.65;;;2.20;99.90;;;;;;5053841;28;20043;-67
2024/01/16 10:05:14;;;;;;;7.40;0.70;;;2.10;99.90;;;;;;5051954;28;20041;-66
2024/01/16 10:07:45;;;;;;;3.85;0.47;;;2.00;99.90;;;;;;5037795;28;20032;-66
2024/01/16 10:10:11;;;;;;;6.57;0.70;;;2.10;99.90;;;;;;5053966;28;20491;-68
2024/01/16 10:12:39;;;;;;;9.48;0.95;;;2.00;99.90;;;;;;5020295;28;20048;-67
2024/01/16 10:15:09;;;;;;;7.25;0.60;;;2.20;99.90;;;;;;5053701;28;20045;-68
2024/01/16 10:17:44;;;;;;;7.32;0.70;;;2.30;99.90;;;;;;5045514;28;20048;-67
2024/01/16 10:20:13;;;;;;;9.95;0.70;;;2.50;99.90;;;;;;5019967;28;20083;-66
2024/01/16 10:22:52;;;;;;;5.20;0.60;;;2.50;99.90;;;;;;5050905;28;20036;-66
2024/01/16 10:25:19;;;;;;;5.47;0.63;;;2.90;99.90;;;;;;5018389;28;20237;-67
2024/01/16 10:27:45;;;;;;;4.18;0.50;;;2.60;99.90;;;;;;5035400;28;20059;-68
2024/01/16 10:30:12;;;;;;;4.18;0.40;;;3.00;99.90;;;;;;5048697;28;20737;-66
2024/01/16 10:32:39;;;;;;;5.72;0.60;;;3.10;99.90;;;;;;5032520;28;20045;-67
2024/01/16 10:35:10;;;;;;;4.50;0.40;;;3.50;99.90;;;;;;5015448;28;20052;-66
2024/01/16 10:37:50;;;;;;;7.38;0.63;;;3.30;99.90;;;;;;5015282;28;20045;-66
2024/01/16 10:40:21;;;;;;;5.63;0.50;;;3.00;99.90;;;;;;5016243;28;20184;-66
2024/01/16 10:43:01;;;;;;;4.00;0.40;;;3.00;99.90;;;;;;5035294;28;20542;-67
2024/01/16 10:45:27;;;;;;;6.13;0.50;;;2.60;99.90;;;;;;5035652;28;20036;-67
2024/01/16 10:48:07;;;;;;;3.42;0.40;;;2.60;99.90;;;;;;5021060;28;20546;-66
2024/01/16 10:50:34;;;;;;;6.03;0.57;;;2.60;99.90;;;;;;5020832;28;20679;-66
2024/01/16 10:53:03;;;;;;;8.38;0.40;;;2.90;99.90;;;;;;5037142;28;20040;-67
2024/01/16 10:55:30;;;;;;;5.28;0.38;;;3.00;99.90;;;;;;5035335;28;20260;-67
2024/01/16 10:57:56;;;;;;;4.45;0.30;;;2.90;99.90;;;;;;5019633;28;20095;-67
2024/01/16 11:00:24;;;;;;;4.28;0.45;;;2.90;99.90;;;;;;5034994;28;20329;-67
2024/01/16 11:03:00;;;;;;;4.32;0.45;;;2.90;99.90;;;;;;5021392;28;20217;-67
2024/01/16 11:05:30;;;;;;;5.30;0.50;;;2.80;99.90;;;;;;5036220;28;20855;-68
2024/01/16 11:07:58;;;;;;;7.57;0.98;;;2.70;99.90;;;;;;5019759;28;20138;-68
2024/01/16 11:10:25;;;;;;;4.93;0.40;;;2.50;99.90;;;;;;5037505;28;20337;-67
2024/01/16 11:12:52;;;;;;;3.95;0.30;;;2.50;99.90;;;;;;5035823;28;20459;-67
2024/01/16 11:15:19;;;;;;;6.03;0.60;;;2.40;99.90;;;;;;5021866;28;20053;-67
2024/01/16 11:17:45;;;;;;;4.75;0.60;;;2.10;99.90;;;;;;5036023;28;20044;-67
2024/01/16 11:20:14;;;;;;;4.70;0.63;;;2.10;99.90;;;;;;5036880;28;20422;-67
2024/01/16 11:22:43;;;;;;;6.97;0.45;;;2.00;99.90;;;;;;5035322;28;20731;-67
2024/01/16 11:25:12;;;;;;;4.57;0.43;;;2.20;99.90;;;;;;5037822;28;20285;-67
2024/01/16 11:27:41;;;;;;;8.35;1.05;;;2.00;99.90;;;;;;5070789;28;20447;-67
2024/01/16 11:30:28;;;;;;;6.63;0.70;;;1.90;99.90;;;;;;5034313;28;20049;-65
2024/01/16 11:32:55;;;;;;;5.60;1.15;;;2.10;99.90;;;;;;5051457;28;20044;-66
2024/01/16 11:35:36;;;;;;;5.47;0.50;;;1.90;99.90;;;;;;5035079;28;20576;-67
2024/01/16 11:38:21;;;;;;;6.25;0.60;;;1.90;99.90;;;;;;5035090;28;20049;-66
2024/01/16 11:40:48;;;;;;;4.85;0.60;;;1.80;99.90;;;;;;5037358;28;20080;-66
2024/01/16 11:43:32;;;;;;;6.13;0.70;;;1.90;99.90;;;;;;5018022;28;20056;-67
2024/01/16 11:45:59;;;;;;;5.43;0.73;;;1.60;99.90;;;;;;5021346;28;20033;-67
2024/01/16 11:48:25;;;;;;;10.43;0.65;;;1.70;99.90;;;;;;5015480;28;20192;-67
2024/01/16 11:50:54;;;;;;;7.25;0.93;;;1.30;99.90;;;;;;5056972;28;20072;-66
2024/01/16 11:53:40;;;;;;;5.30;1.00;;;1.50;99.90;;;;;;5093040;28;20507;-66
2024/01/16 11:56:25;;;;;;;5.90;1.38;;;1.10;99.90;;;;;;5059092;28;20035;-66
2024/01/16 11:59:41;;;;;;;5.13;1.63;;;1.40;99.90;;;;;;5075274;28;20490;-66
2024/01/16 12:02:14;;;;;;;5.53;1.73;;;1.00;99.90;;;;;;5055653;28;20044;-67
2024/01/16 12:04:40;;;;;;;6.43;2.00;;;1.20;99.90;;;;;;5060542;28;20130;-67
2024/01/16 12:07:07;;;;;;;5.45;1.80;;;1.10;99.90;;;;;;5058125;28;20039;-67
2024/01/16 12:09:33;;;;;;;5.88;2.40;;;1.30;99.90;;;;;;5060909;28;20047;-67
2024/01/16 12:12:01;;;;;;;9.75;3.25;;;1.30;99.90;;;;;;5075317;28;20042;-68
2024/01/16 12:14:27;;;;;;;8.80;3.05;;;1.60;99.90;;;;;;5093796;27;20032;-68
2024/01/16 12:17:08;;;;;;;9.45;3.60;;;1.20;99.90;;;;;;5074596;28;20042;-67
2024/01/16 12:19:34;;;;;;;9.98;4.10;;;1.40;99.90;;;;;;5060583;28;20039;-67
2024/01/16 12:22:00;;;;;;;10.00;4.05;;;1.50;99.90;;;;;;5091542;28;20047;-67
2024/01/16 12:24:26;;;;;;;9.05;4.35;;;1.30;99.90;;;;;;5075590;28;20043;-67
2024/01/16 12:26:57;;;;;;;10.52;3.72;;;1.60;99.90;;;;;;5057886;28;20079;-68
2024/01/16 12:29:22;;;;;;;7.85;4.03;;;1.50;99.90;;;;;;5091812;27;20075;-67
2024/01/16 12:31:48;;;;;;;8.93;3.17;;;1.40;99.90;;;;;;5076027;28;20119;-69
2024/01/16 12:34:14;;;;;;;5.28;2.22;;;1.10;99.90;;;;;;5059694;28;20262;-66
2024/01/16 12:36:40;;;;;;;7.28;3.10;;;1.40;99.90;;;;;;5057348;28;20074;-67
2024/01/16 12:39:12;;;;;;;8.85;2.67;;;1.10;99.90;;;;;;5059811;28;20047;-67
2024/01/16 12:41:43;;;;;;;5.88;2.05;;;1.30;99.90;;;;;;5092903;27;20043;-68
2024/01/16 12:44:09;;;;;;;4.72;1.73;;;1.70;99.90;;;;;;5092354;28;20051;-67
2024/01/16 12:46:34;;;;;;;9.27;2.47;;;1.70;99.90;;;;;;5074672;28;20067;-67
2024/01/16 12:49:05;;;;;;;3.45;1.77;;;1.90;99.90;;;;;;5074610;28;20461;-68
2024/01/16 12:51:31;;;;;;;4.35;1.80;;;2.00;99.90;;;;;;5075498;28;20043;-68
2024/01/16 12:54:18;;;;;;;6.57;1.80;;;2.20;99.90;;;;;;5092301;28;20716;-68